createdAt,value
2022-09-12T00:09:49.351Z,100563.59
2022-09-12T00:19:53.229Z,100559.47
2022-09-12T00:29:58.196Z,100560.41
2022-09-12T00:40:01.864Z,100563.31
2022-09-12T00:50:11.212Z,100550.81
2022-09-12T01:00:19.272Z,100544.06
2022-09-12T01:10:25.172Z,100532.84
2022-09-12T01:20:47.635Z,100539.09
2022-09-12T01:31:01.233Z,100535.41
2022-09-12T01:41:12.676Z,100529.06
2022-09-12T01:51:23.895Z,100529.72
2022-09-12T02:01:30.468Z,100521.13
2022-09-12T02:11:41.501Z,100512.94
2022-09-12T02:21:50.703Z,100502.78
2022-09-12T02:31:59.871Z,100515.25
2022-09-12T02:42:05.058Z,100514.03
2022-09-12T02:52:10.103Z,100502.44
2022-09-12T03:02:29.472Z,100489.28
2022-09-12T03:12:48.567Z,100507.78
2022-09-12T03:22:57.422Z,100500.59
2022-09-12T03:33:02.434Z,100503.13
2022-09-12T03:43:07.992Z,100502.94
2022-09-12T03:53:16.564Z,100510.81
2022-09-12T04:03:21.211Z,100510.50
2022-09-12T04:13:28.778Z,100502.63
2022-09-12T04:23:32.731Z,100494.88
2022-09-12T04:33:37.851Z,100503.59
2022-09-12T04:43:42.071Z,100501.19
2022-09-12T04:53:51.229Z,100508.03
2022-09-12T05:03:55.934Z,100506.72
2022-09-12T05:14:01.509Z,100503.91
2022-09-12T05:24:06.287Z,100511.31
2022-09-12T05:34:11.925Z,100523.25
2022-09-12T05:44:18.974Z,100521.25
2022-09-12T05:54:27.249Z,100535.88
2022-09-12T06:04:33.401Z,100536.19
2022-09-12T06:14:41.332Z,100528.22
2022-09-12T06:24:45.188Z,100518.41
2022-09-12T06:34:51.808Z,100523.66
2022-09-12T06:44:55.678Z,100518.66
2022-09-12T06:55:00.698Z,100500.16
2022-09-12T07:05:04.841Z,100500.16
2022-09-12T07:15:11.913Z,100493.69
2022-09-12T07:25:16.013Z,100477.66
2022-09-12T07:35:20.983Z,100480.06
2022-09-12T07:45:26.729Z,100480.06
2022-09-12T07:55:32.220Z,100454.28
2022-09-12T08:05:36.100Z,100457.28
2022-09-12T08:15:41.352Z,100458.06
2022-09-12T08:25:44.999Z,100467.88
2022-09-12T08:35:51.111Z,100462.81
2022-09-12T08:46:03.155Z,100451.06
2022-09-12T08:56:11.679Z,100454.00
2022-09-12T09:06:30.116Z,100449.09
2022-09-12T09:16:39.402Z,100436.75
2022-09-12T09:26:48.152Z,100429.25
2022-09-12T09:37:00.844Z,100428.56
2022-09-12T09:47:05.265Z,100408.06
2022-09-12T09:57:41.908Z,100395.19
2022-09-12T10:07:51.822Z,100391.78
2022-09-12T10:17:56.986Z,100381.44
2022-09-12T10:28:02.835Z,100367.66
2022-09-12T10:38:19.230Z,100349.53
2022-09-12T10:48:31.666Z,100346.06
2022-09-12T10:59:03.575Z,100327.06
2022-09-12T11:09:16.913Z,100322.56
2022-09-12T11:19:54.875Z,100314.00
2022-09-12T11:30:00.838Z,100306.13
2022-09-12T11:40:27.701Z,100303.38
2022-09-12T11:50:33.514Z,100283.69
2022-09-12T12:00:45.245Z,100270.59
2022-09-12T12:10:53.943Z,100261.25
2022-09-12T12:21:22.535Z,100245.66
2022-09-12T12:31:26.298Z,100242.09
2022-09-12T12:41:47.192Z,100217.34
2022-09-12T12:51:58.898Z,100213.53
2022-09-12T13:02:05.925Z,100183.88
2022-09-12T13:12:18.929Z,100160.50
2022-09-12T13:22:25.980Z,100137.97
2022-09-12T13:32:29.657Z,100132.94
2022-09-12T13:42:41.553Z,100135.00
2022-09-12T13:52:50.932Z,100122.91
2022-09-12T14:03:11.000Z,100096.69
2022-09-12T14:13:20.784Z,100104.94
2022-09-12T14:23:30.627Z,100078.59
2022-09-12T14:33:48.192Z,100090.50
2022-09-12T14:43:57.562Z,100067.81
2022-09-12T14:54:01.287Z,100058.84
2022-09-12T15:04:06.341Z,100056.19
2022-09-12T15:14:14.624Z,100037.09
2022-09-12T15:24:19.855Z,100028.06
2022-09-12T15:34:23.557Z,100028.19
2022-09-12T15:44:28.797Z,100012.38
2022-09-12T15:54:36.157Z,100015.94
2022-09-12T16:04:42.184Z,100012.84
2022-09-12T16:14:45.795Z,100001.78
2022-09-12T16:24:55.473Z,99978.03
2022-09-12T16:34:59.480Z,99982.16
2022-09-12T16:45:05.373Z,99979.56
2022-09-12T16:55:09.963Z,99981.94
2022-09-12T17:05:18.219Z,99973.81
2022-09-12T17:15:21.864Z,99988.41
2022-09-12T17:25:28.765Z,99991.81
2022-09-12T17:35:35.315Z,100001.88
2022-09-12T17:45:42.647Z,99993.72
2022-09-12T17:55:46.325Z,100003.34
2022-09-12T18:05:55.410Z,99998.25
2022-09-12T18:16:05.497Z,100024.00
2022-09-12T18:26:12.591Z,100025.59
2022-09-12T18:36:18.040Z,100035.78
2022-09-12T18:46:23.615Z,100028.94
2022-09-12T18:56:32.209Z,100019.47
2022-09-12T19:06:39.970Z,100028.00
2022-09-12T19:16:43.676Z,100043.91
2022-09-12T19:26:50.403Z,100041.25
2022-09-12T19:36:54.525Z,100046.94
2022-09-12T19:46:59.563Z,100044.28
2022-09-12T19:57:03.230Z,100042.31
2022-09-12T20:07:08.187Z,100033.63
2022-09-12T20:17:11.860Z,100006.94
2022-09-12T20:27:16.924Z,99992.41
2022-09-12T20:37:21.020Z,99998.97
2022-09-12T20:47:26.109Z,99998.78
2022-09-12T20:57:29.964Z,99989.38
2022-09-12T21:07:34.942Z,99978.09
2022-09-12T21:17:40.347Z,99974.44
2022-09-12T21:27:45.329Z,99982.03
2022-09-12T21:37:49.171Z,99980.97
2022-09-12T21:47:54.174Z,99985.09
2022-09-12T21:57:59.916Z,99995.03
2022-09-12T22:08:05.026Z,99995.63
2022-09-12T22:18:08.714Z,99982.78
2022-09-12T22:28:14.284Z,99968.16
2022-09-12T22:38:17.930Z,99973.06
2022-09-12T22:48:22.952Z,99960.28
2022-09-12T22:58:26.743Z,99962.06
2022-09-12T23:08:32.113Z,99962.09
2022-09-12T23:18:37.276Z,99949.22
2022-09-12T23:28:48.059Z,99982.25
2022-09-12T23:38:52.273Z,99949.09
2022-09-12T23:48:57.290Z,99957.88
2022-09-12T23:59:01.044Z,99960.84
